createdAt,value
2023-03-08T00:01:51.463Z,1.88
2023-03-08T00:04:21.237Z,2.67
2023-03-08T00:06:51.043Z,2.67
2023-03-08T00:09:20.624Z,2.75
2023-03-08T00:11:50.165Z,2.13
2023-03-08T00:14:25.370Z,1.80
2023-03-08T00:16:54.915Z,2.38
2023-03-08T00:19:24.505Z,2.97
2023-03-08T00:21:54.084Z,1.88
2023-03-08T00:24:23.676Z,2.33
2023-03-08T00:26:53.234Z,3.03
2023-03-08T00:29:25.561Z,2.25
2023-03-08T00:31:55.308Z,2.80
2023-03-08T00:34:25.253Z,2.50
2023-03-08T00:36:54.835Z,3.22
2023-03-08T00:39:24.416Z,2.22
2023-03-08T00:41:54.006Z,2.55
2023-03-08T00:44:27.007Z,2.90
2023-03-08T00:46:56.565Z,4.70
2023-03-08T00:49:26.203Z,2.63
2023-03-08T00:51:55.770Z,2.45
2023-03-08T00:54:25.402Z,4.28
2023-03-08T00:56:55.109Z,3.03
2023-03-08T00:59:27.273Z,3.10
2023-03-08T01:01:57.468Z,3.20
2023-03-08T01:04:27.360Z,3.85
2023-03-08T01:06:56.996Z,2.97
2023-03-08T01:09:26.660Z,4.45
2023-03-08T01:11:56.743Z,4.65
2023-03-08T01:14:30.063Z,3.60
2023-03-08T01:16:59.690Z,5.05
2023-03-08T01:19:29.285Z,3.78
2023-03-08T01:21:58.849Z,3.35
2023-03-08T01:24:28.423Z,3.08
2023-03-08T01:27:01.015Z,3.50
2023-03-08T01:29:33.165Z,3.45
2023-03-08T01:32:02.907Z,3.35
2023-03-08T01:34:32.509Z,7.25
2023-03-08T01:37:02.163Z,4.90
2023-03-08T01:39:31.710Z,5.20
2023-03-08T01:42:01.540Z,4.85
2023-03-08T01:44:52.441Z,4.30
2023-03-08T01:47:24.303Z,4.95
2023-03-08T01:50:26.175Z,3.00
2023-03-08T01:52:58.272Z,6.95
2023-03-08T01:55:28.030Z,7.07
2023-03-08T01:57:58.820Z,4.47
2023-03-08T02:00:31.094Z,2.95
2023-03-08T02:03:03.648Z,4.43
2023-03-08T02:05:33.706Z,6.82
2023-03-08T02:08:15.426Z,4.60
2023-03-08T02:10:47.099Z,7.07
2023-03-08T02:13:17.725Z,5.35
2023-03-08T02:15:51.366Z,4.35
2023-03-08T02:18:23.374Z,4.75
2023-03-08T02:20:52.956Z,3.40
2023-03-08T02:23:28.944Z,3.85
2023-03-08T02:26:01.898Z,4.00
2023-03-08T02:28:33.377Z,4.35
2023-03-08T02:31:03.653Z,4.10
2023-03-08T02:33:36.602Z,3.90
2023-03-08T02:36:08.207Z,5.82
2023-03-08T02:38:40.435Z,4.22
2023-03-08T02:41:11.364Z,3.15
2023-03-08T02:43:40.952Z,5.13
2023-03-08T02:46:13.367Z,4.43
2023-03-08T02:48:42.975Z,7.70
2023-03-08T02:51:12.651Z,5.90
2023-03-08T02:57:10.539Z,4.38
2023-03-08T02:59:41.426Z,5.03
2023-03-08T03:02:11.151Z,5.05
2023-03-08T03:04:40.788Z,5.00
2023-03-08T03:07:10.637Z,8.02
2023-03-08T03:09:41.210Z,4.75
2023-03-08T03:12:13.468Z,4.78
2023-03-08T03:14:44.990Z,6.38
2023-03-08T03:17:14.610Z,6.28
2023-03-08T04:05:56.194Z,5.00
2023-03-08T04:08:25.885Z,4.50
2023-03-08T04:10:55.608Z,5.40
2023-03-08T04:13:25.724Z,5.40
2023-03-08T04:15:55.818Z,5.35
2023-03-08T04:18:25.808Z,5.75
2023-03-08T04:20:58.062Z,7.53
2023-03-08T04:23:27.748Z,9.63
2023-03-08T04:25:57.322Z,5.93
2023-03-08T04:28:26.964Z,5.72
2023-03-08T04:30:57.201Z,7.72
2023-03-08T04:33:26.995Z,6.28
2023-03-08T04:35:59.444Z,5.57
2023-03-08T04:38:30.156Z,5.85
2023-03-08T04:41:05.646Z,7.82
2023-03-08T04:43:49.647Z,9.30
2023-03-08T04:46:22.877Z,9.18
2023-03-08T04:48:52.964Z,5.78
2023-03-08T04:51:27.307Z,5.82
2023-03-08T04:53:59.457Z,5.60
2023-03-08T04:56:29.482Z,6.00
2023-03-08T04:58:59.116Z,10.25
2023-03-08T05:01:30.014Z,6.53
2023-03-08T05:04:00.666Z,7.05
2023-03-08T05:06:39.762Z,7.10
2023-03-08T05:09:11.222Z,6.82
2023-03-08T05:11:43.589Z,8.02
2023-03-08T05:14:13.666Z,9.48
2023-03-08T05:16:43.399Z,10.02
2023-03-08T05:19:13.732Z,8.65
2023-03-08T05:21:53.041Z,9.05
2023-03-08T05:24:23.028Z,9.07
2023-03-08T05:26:52.935Z,9.00
2023-03-08T05:29:23.560Z,7.50
2023-03-08T05:31:53.604Z,9.13
2023-03-08T05:34:24.472Z,8.90
2023-03-08T05:36:56.690Z,8.85
2023-03-08T05:39:26.371Z,6.85
2023-03-08T05:42:02.531Z,8.00
2023-03-08T05:44:39.498Z,5.60
2023-03-08T05:47:10.576Z,7.55
2023-03-08T05:49:40.314Z,6.32
2023-03-08T05:52:13.433Z,5.90
2023-03-08T05:54:43.875Z,8.45
2023-03-08T05:57:18.172Z,8.90
2023-03-08T05:59:48.592Z,7.63
2023-03-08T06:02:21.196Z,6.15
2023-03-08T06:04:53.372Z,6.05
2023-03-08T06:07:28.196Z,7.35
2023-03-08T06:10:05.209Z,8.40
2023-03-08T06:12:34.853Z,6.78
2023-03-08T06:15:09.667Z,6.38
2023-03-08T06:17:40.613Z,13.02
2023-03-08T06:20:12.115Z,14.35
2023-03-08T06:22:47.666Z,11.20
2023-03-08T06:25:18.796Z,9.52
2023-03-08T06:27:49.742Z,8.18
2023-03-08T06:30:38.157Z,9.98
2023-03-08T06:33:08.469Z,8.20
2023-03-08T06:35:38.580Z,8.40
2023-03-08T06:38:11.780Z,8.52
2023-03-08T06:40:41.620Z,10.05
2023-03-08T06:43:11.240Z,7.95
2023-03-08T06:45:41.081Z,8.85
2023-03-08T06:48:12.079Z,12.52
2023-03-08T06:50:42.701Z,9.65
2023-03-08T06:53:16.002Z,9.60
2023-03-08T06:55:56.458Z,12.50
2023-03-08T06:58:26.058Z,10.40
2023-03-08T07:00:59.797Z,11.32
2023-03-08T07:03:29.976Z,10.00
2023-03-08T07:06:01.605Z,8.38
2023-03-08T07:08:33.957Z,8.80
2023-03-08T07:11:03.536Z,9.30
2023-03-08T07:13:33.092Z,8.38
2023-03-08T07:16:02.716Z,7.90
2023-03-08T07:18:32.274Z,8.50
2023-03-08T07:21:01.816Z,7.00
2023-03-08T07:23:34.224Z,8.55
2023-03-08T07:26:07.264Z,8.30
2023-03-08T07:28:36.909Z,7.80
2023-03-08T07:31:06.888Z,6.82
2023-03-08T07:33:36.578Z,8.25
2023-03-08T07:36:06.810Z,9.55
2023-03-08T07:38:38.961Z,9.95
2023-03-08T07:41:08.798Z,11.50
2023-03-08T07:43:38.566Z,7.68
2023-03-08T07:46:15.870Z,7.70
2023-03-08T07:48:45.450Z,8.20
2023-03-08T07:51:15.223Z,6.95
2023-03-08T07:53:47.389Z,7.28
2023-03-08T07:56:17.060Z,8.48
2023-03-08T07:58:46.765Z,6.95
2023-03-08T08:01:17.099Z,8.68
2023-03-08T08:03:47.358Z,7.32
2023-03-08T08:06:17.243Z,10.77
2023-03-08T08:08:49.399Z,8.57
2023-03-08T08:11:20.231Z,7.05
2023-03-08T08:13:49.850Z,8.65
2023-03-08T08:16:20.279Z,10.75
2023-03-08T08:18:49.912Z,10.52
2023-03-08T08:21:19.516Z,8.35
2023-03-08T08:23:51.760Z,9.25
2023-03-08T08:26:22.764Z,9.35
2023-03-08T08:28:54.963Z,9.65
2023-03-08T08:31:26.855Z,8.38
2023-03-08T08:33:56.515Z,8.55
2023-03-08T08:36:26.861Z,7.72
2023-03-08T08:38:59.032Z,10.57
2023-03-08T08:41:29.788Z,10.32
2023-03-08T08:44:00.244Z,8.57
2023-03-08T08:46:31.142Z,9.82
2023-03-08T08:49:01.344Z,8.82
2023-03-08T08:51:31.156Z,9.20
2023-03-08T08:54:03.392Z,8.98
2023-03-08T08:56:33.092Z,8.85
2023-03-08T08:59:04.670Z,8.30
2023-03-08T09:01:37.081Z,8.15
2023-03-08T09:04:06.723Z,8.75
2023-03-08T09:06:36.437Z,7.35
2023-03-08T09:09:09.446Z,8.15
2023-03-08T09:11:53.442Z,8.10
2023-03-08T09:14:26.882Z,7.95
2023-03-08T09:16:56.569Z,8.98
2023-03-08T09:19:26.268Z,10.38
2023-03-08T09:21:56.001Z,11.93
2023-03-08T09:24:28.130Z,8.15
2023-03-08T09:26:57.691Z,9.75
2023-03-08T09:29:27.248Z,9.20
2023-03-08T09:31:58.690Z,8.88
2023-03-08T09:34:28.977Z,10.68
2023-03-08T09:36:58.564Z,8.57
2023-03-08T09:39:30.862Z,10.95
2023-03-08T09:42:02.398Z,9.82
2023-03-08T09:45:01.966Z,8.00
2023-03-08T09:47:40.047Z,9.40
2023-03-08T09:50:28.046Z,9.48
2023-03-08T09:53:01.971Z,10.07
2023-03-08T09:55:36.120Z,9.15
2023-03-08T09:58:14.201Z,12.23
2023-03-08T10:00:43.835Z,10.90
2023-03-08T10:03:35.462Z,10.75
2023-03-08T10:06:15.492Z,9.90
2023-03-08T10:08:52.361Z,11.75
2023-03-08T10:11:34.320Z,10.52
2023-03-08T10:14:13.613Z,11.85
2023-03-08T10:16:47.017Z,11.77
2023-03-08T10:19:20.303Z,14.68
2023-03-08T10:21:50.877Z,13.95
2023-03-08T10:24:27.185Z,14.88
2023-03-08T10:27:09.545Z,11.85
2023-03-08T10:29:39.133Z,12.32
2023-03-08T10:32:09.340Z,13.02
2023-03-08T10:34:39.062Z,13.82
2023-03-08T10:37:09.987Z,15.25
2023-03-08T10:39:40.351Z,13.30
2023-03-08T10:42:18.783Z,12.15
2023-03-08T10:44:57.207Z,14.75
2023-03-08T10:47:29.894Z,11.35
2023-03-08T10:50:08.432Z,14.18
2023-03-08T10:52:38.307Z,10.68
2023-03-08T10:55:13.934Z,15.05
2023-03-08T10:57:54.029Z,9.30
2023-03-08T11:00:43.929Z,5.50
2023-03-08T11:03:17.400Z,8.20
2023-03-08T11:05:59.110Z,5.63
2023-03-08T11:08:31.981Z,7.57
2023-03-08T11:11:10.748Z,5.82
2023-03-08T11:13:46.575Z,7.63
2023-03-08T11:19:09.782Z,6.85
2023-03-08T11:21:50.706Z,7.70
2023-03-08T11:24:32.960Z,6.20
2023-03-08T11:27:19.622Z,4.38
2023-03-08T11:30:05.981Z,8.60
2023-03-08T11:32:50.352Z,10.70
2023-03-08T11:35:27.406Z,8.55
2023-03-08T11:38:02.487Z,8.63
2023-03-08T11:40:40.755Z,9.27
2023-03-08T11:43:26.310Z,13.45
2023-03-08T11:46:04.492Z,8.40
2023-03-08T11:49:03.807Z,11.32
2023-03-08T11:51:42.917Z,17.67
2023-03-08T11:54:20.148Z,13.93
2023-03-08T11:56:54.286Z,15.95
2023-03-08T11:59:32.511Z,13.35
2023-03-08T12:02:14.333Z,13.73
2023-03-08T12:04:48.699Z,10.00
2023-03-08T12:07:25.305Z,9.90
2023-03-08T12:10:02.172Z,9.65
2023-03-08T12:12:36.254Z,9.40
2023-03-08T12:15:16.995Z,7.30
2023-03-08T12:17:55.650Z,8.20
2023-03-08T12:20:25.689Z,8.95
2023-03-08T12:23:03.273Z,6.50
2023-03-08T12:25:35.812Z,8.77
2023-03-08T12:28:09.706Z,7.47
2023-03-08T12:30:50.432Z,6.45
2023-03-08T12:33:23.632Z,6.75
2023-03-08T12:35:55.814Z,6.03
2023-03-08T12:38:34.782Z,6.93
2023-03-08T12:41:07.199Z,7.97
2023-03-08T12:43:38.784Z,6.68
2023-03-08T12:46:10.775Z,5.28
2023-03-08T12:48:51.968Z,5.53
2023-03-08T12:51:26.975Z,6.35
2023-03-08T12:54:03.319Z,7.15
2023-03-08T12:56:35.855Z,6.07
2023-03-08T12:59:26.732Z,4.97
2023-03-08T13:02:04.405Z,7.47
2023-03-08T13:04:41.763Z,6.88
2023-03-08T13:07:24.977Z,7.13
2023-03-08T13:10:00.986Z,4.45
2023-03-08T13:12:42.839Z,5.10
2023-03-08T13:15:26.024Z,5.13
2023-03-08T13:18:08.519Z,4.60
2023-03-08T13:21:00.915Z,6.15
2023-03-08T13:23:36.347Z,5.68
2023-03-08T13:26:19.141Z,6.40
2023-03-08T13:28:49.510Z,8.07
2023-03-08T13:31:22.245Z,19.58
2023-03-08T13:33:54.912Z,5.85
2023-03-08T13:36:29.017Z,6.75
2023-03-08T13:39:01.147Z,4.82
2023-03-08T13:41:38.481Z,4.43
2023-03-08T13:44:10.409Z,5.30
2023-03-08T13:46:42.995Z,5.40
2023-03-08T13:49:19.022Z,4.40
2023-03-08T13:51:54.952Z,4.18
2023-03-08T13:54:29.931Z,4.10
2023-03-08T13:57:00.494Z,4.35
2023-03-08T13:59:30.226Z,7.40
2023-03-08T14:02:00.360Z,3.78
2023-03-08T14:04:31.756Z,3.00
2023-03-08T14:07:07.285Z,2.97
2023-03-08T14:09:36.922Z,3.22
2023-03-08T14:12:09.970Z,2.30
2023-03-08T14:14:43.342Z,4.13
2023-03-08T14:17:22.418Z,3.28
2023-03-08T14:19:56.902Z,4.85
2023-03-08T14:22:39.622Z,3.30
2023-03-08T14:25:24.752Z,7.13
2023-03-08T14:27:55.061Z,4.32
2023-03-08T14:30:26.834Z,4.80
2023-03-08T14:33:07.168Z,4.60
2023-03-08T14:35:39.803Z,3.63
2023-03-08T14:38:25.949Z,4.57
2023-03-08T14:43:27.565Z,2.85
2023-03-08T14:45:59.048Z,3.15
2023-03-08T14:48:32.786Z,4.68
2023-03-08T14:51:04.579Z,4.60
2023-03-08T14:53:38.904Z,5.30
2023-03-08T14:56:10.014Z,5.22
2023-03-08T14:58:42.681Z,6.03
2023-03-08T15:01:12.532Z,5.03
2023-03-08T15:03:42.142Z,3.92
2023-03-08T15:06:18.260Z,4.10
2023-03-08T15:08:51.526Z,4.32
2023-03-08T15:11:22.002Z,6.28
2023-03-08T15:13:52.223Z,3.63
2023-03-08T15:16:21.932Z,4.32
2023-03-08T15:18:51.580Z,4.43
2023-03-08T15:21:25.120Z,4.95
2023-03-08T15:23:57.703Z,4.97
2023-03-08T15:26:31.538Z,5.55
2023-03-08T15:29:03.424Z,15.00
2023-03-08T15:31:33.592Z,7.63
2023-03-08T15:34:03.855Z,5.32
2023-03-08T15:36:35.777Z,5.93
2023-03-08T15:39:08.267Z,5.53
2023-03-08T15:41:38.154Z,5.43
2023-03-08T15:44:07.725Z,7.30
2023-03-08T15:46:38.020Z,4.32
2023-03-08T15:49:08.578Z,5.30
2023-03-08T15:51:39.604Z,4.40
2023-03-08T15:54:13.934Z,4.60
2023-03-08T15:56:43.668Z,6.13
2023-03-08T15:59:14.292Z,4.38
2023-03-08T16:01:43.912Z,4.93
2023-03-08T16:04:13.804Z,5.22
2023-03-08T16:06:44.259Z,5.85
2023-03-08T16:09:16.390Z,7.93
2023-03-08T16:11:48.127Z,7.30
2023-03-08T16:14:18.791Z,8.15
2023-03-08T16:16:48.569Z,7.30
2023-03-08T16:19:18.258Z,8.30
2023-03-08T16:21:48.128Z,7.60
2023-03-08T16:24:20.307Z,6.75
2023-03-08T16:26:50.111Z,9.35
2023-03-08T16:29:19.685Z,6.65
2023-03-08T16:31:49.390Z,6.85
2023-03-08T16:34:19.798Z,8.00
2023-03-08T16:36:49.336Z,7.50
2023-03-08T16:39:21.608Z,7.82
2023-03-08T16:41:51.689Z,9.35
2023-03-08T16:44:23.083Z,10.60
2023-03-08T16:46:53.162Z,10.07
2023-03-08T16:49:28.410Z,9.13
2023-03-08T16:51:58.783Z,8.65
2023-03-08T16:54:31.103Z,9.35
2023-03-08T16:57:13.044Z,10.23
2023-03-08T16:59:47.702Z,9.90
2023-03-08T17:02:18.969Z,12.43
2023-03-08T17:04:49.627Z,11.27
2023-03-08T17:07:19.675Z,13.70
2023-03-08T17:09:52.189Z,13.52
2023-03-08T17:12:21.784Z,17.00
2023-03-08T17:14:51.407Z,14.82
2023-03-08T17:17:21.105Z,14.45
2023-03-08T17:19:54.124Z,20.48
2023-03-08T17:22:23.806Z,22.60
2023-03-08T17:24:56.126Z,21.35
2023-03-08T17:27:25.703Z,21.10
2023-03-08T17:29:55.371Z,23.33
2023-03-08T17:32:25.033Z,22.65
2023-03-08T17:34:54.749Z,25.63
2023-03-08T17:37:24.414Z,26.05
2023-03-08T17:39:56.774Z,24.73
2023-03-08T17:42:26.528Z,19.75
2023-03-08T17:44:56.161Z,23.58
2023-03-08T17:47:25.836Z,24.73
2023-03-08T17:49:55.418Z,22.58
2023-03-08T17:52:25.040Z,21.17
2023-03-08T17:54:57.189Z,19.95
2023-03-08T17:57:27.339Z,19.73
2023-03-08T17:59:57.278Z,21.52
2023-03-08T18:02:27.073Z,26.10
2023-03-08T18:04:56.724Z,20.35
2023-03-08T18:07:27.831Z,21.80
2023-03-08T18:10:01.890Z,21.35
2023-03-08T18:12:32.159Z,22.17
2023-03-08T18:15:02.015Z,26.17
2023-03-08T18:17:34.196Z,22.70
2023-03-08T18:20:05.601Z,22.52
2023-03-08T18:22:35.391Z,21.88
2023-03-08T18:25:08.362Z,29.27
2023-03-08T18:27:39.578Z,22.00
2023-03-08T18:30:11.930Z,24.15
2023-03-08T18:32:42.158Z,24.42
2023-03-08T18:35:13.445Z,29.15
2023-03-08T18:37:43.106Z,20.35
2023-03-08T18:40:15.970Z,22.85
2023-03-08T18:42:46.047Z,25.98
2023-03-08T18:45:17.156Z,20.58
2023-03-08T18:47:46.967Z,19.02
2023-03-08T18:50:16.885Z,16.40
2023-03-08T18:52:46.487Z,17.20
2023-03-08T18:55:18.728Z,16.65
2023-03-08T18:57:48.306Z,16.90
2023-03-08T19:00:19.483Z,15.77
2023-03-08T19:02:49.040Z,13.35
2023-03-08T19:05:19.077Z,16.75
2023-03-08T19:07:48.638Z,13.95
2023-03-08T19:10:21.082Z,19.42
2023-03-08T19:12:50.671Z,15.23
2023-03-08T19:15:20.590Z,14.30
2023-03-08T19:17:50.172Z,21.45
2023-03-08T19:20:20.541Z,15.50
2023-03-08T19:22:50.125Z,22.02
2023-03-08T19:25:22.307Z,20.92
2023-03-08T19:27:51.882Z,15.50
2023-03-08T19:30:23.302Z,21.42
2023-03-08T19:32:52.862Z,16.45
2023-03-08T19:35:23.113Z,19.05
2023-03-08T19:37:53.519Z,16.02
2023-03-08T19:40:25.752Z,16.80
2023-03-08T19:42:55.506Z,15.60
2023-03-08T19:45:25.394Z,17.35
2023-03-08T19:47:55.864Z,15.00
2023-03-08T19:50:25.773Z,19.73
2023-03-08T19:52:55.609Z,17.55
2023-03-08T19:55:28.278Z,17.27
2023-03-08T19:57:57.896Z,15.57
2023-03-08T20:00:28.857Z,15.57
2023-03-08T20:02:59.547Z,16.88
2023-03-08T20:05:29.463Z,15.18
2023-03-08T20:07:59.311Z,17.20
2023-03-08T20:10:31.760Z,17.00
2023-03-08T20:13:01.333Z,18.15
2023-03-08T20:15:31.101Z,20.55
2023-03-08T20:18:01.104Z,16.30
2023-03-08T20:20:30.721Z,18.85
2023-03-08T20:23:00.741Z,16.42
2023-03-08T20:25:34.792Z,21.35
2023-03-08T20:28:04.914Z,24.08
2023-03-08T20:30:34.478Z,26.33
2023-03-08T20:33:04.594Z,19.80
2023-03-08T20:35:34.436Z,31.98
2023-03-08T20:38:04.111Z,29.30
2023-03-08T20:40:39.240Z,24.52
2023-03-08T20:45:42.326Z,34.92
2023-03-08T20:48:12.057Z,44.65
2023-03-08T20:50:41.818Z,26.90
2023-03-08T20:53:11.606Z,32.40
2023-03-08T20:55:44.036Z,28.33
2023-03-08T20:58:13.809Z,32.70
2023-03-08T21:00:43.661Z,23.95
2023-03-08T21:03:13.447Z,19.67
2023-03-08T21:05:43.056Z,22.52
2023-03-08T21:08:12.767Z,27.42
2023-03-08T21:10:44.906Z,21.83
2023-03-08T21:13:14.662Z,24.17
2023-03-08T21:15:44.355Z,28.02
2023-03-08T21:18:13.972Z,30.38
2023-03-08T21:20:44.949Z,19.95
2023-03-08T21:23:16.523Z,22.33
2023-03-08T21:25:48.670Z,25.95
2023-03-08T21:28:18.530Z,21.33
2023-03-08T21:30:48.850Z,24.27
2023-03-08T21:33:18.821Z,18.85
2023-03-08T21:35:48.401Z,22.92
2023-03-08T21:38:17.969Z,18.25
2023-03-08T21:40:50.107Z,20.67
2023-03-08T21:43:19.675Z,23.30
2023-03-08T21:45:49.269Z,24.15
2023-03-08T21:48:18.852Z,19.27
2023-03-08T21:50:48.409Z,15.90
2023-03-08T21:53:17.982Z,19.20
2023-03-08T21:55:50.130Z,20.23
2023-03-08T21:58:19.724Z,32.25
2023-03-08T22:00:49.332Z,29.27
2023-03-08T22:03:19.258Z,25.38
2023-03-08T22:05:48.908Z,21.88
2023-03-08T22:08:18.453Z,33.83
2023-03-08T22:10:50.721Z,25.73
2023-03-08T22:13:20.284Z,32.22
2023-03-08T22:15:52.502Z,24.48
2023-03-08T22:18:25.861Z,31.88
2023-03-08T22:20:56.254Z,22.42
2023-03-08T22:23:26.513Z,21.58
2023-03-08T22:25:58.647Z,34.58
2023-03-08T22:28:28.265Z,22.38
2023-03-08T22:30:57.829Z,24.65
2023-03-08T22:33:27.356Z,19.88
2023-03-08T22:35:56.980Z,29.20
2023-03-08T22:38:26.548Z,37.28
2023-03-08T22:40:58.690Z,26.02
2023-03-08T22:43:28.602Z,26.52
2023-03-08T22:45:58.220Z,19.40
2023-03-08T22:48:27.843Z,25.88
2023-03-08T22:51:10.297Z,20.60
2023-03-08T22:53:40.581Z,20.48
2023-03-08T22:56:21.659Z,29.80
2023-03-08T22:58:51.650Z,23.35
2023-03-08T23:01:22.977Z,18.50
2023-03-08T23:03:53.692Z,29.58
2023-03-08T23:06:23.325Z,18.15
2023-03-08T23:08:53.280Z,17.85
2023-03-08T23:11:25.822Z,24.40
2023-03-08T23:13:55.760Z,17.58
2023-03-08T23:16:25.402Z,18.27
2023-03-08T23:18:56.516Z,21.52
2023-03-08T23:21:29.370Z,19.65
2023-03-08T23:23:59.522Z,19.30
2023-03-08T23:26:32.805Z,18.63
2023-03-08T23:29:04.916Z,16.20
2023-03-08T23:31:36.011Z,16.45
2023-03-08T23:34:07.492Z,16.17
2023-03-08T23:36:37.100Z,15.30
2023-03-08T23:39:06.773Z,13.40
2023-03-08T23:41:38.936Z,12.07
2023-03-08T23:44:08.530Z,18.98
2023-03-08T23:46:38.345Z,16.30
2023-03-08T23:49:07.997Z,14.88
2023-03-08T23:51:37.580Z,14.85
2023-03-08T23:54:07.327Z,18.92
2023-03-08T23:56:41.397Z,12.93
2023-03-08T23:59:17.545Z,22.50
